KQWM/QWM METAR and TAF weather

Enter ICAO airport designator
Station Type Date Time Source
KQWM METAR 2024/02/26 17:55 UTC NOAA

KQWM 261755Z 29004KT 9999 CLR 15/03 A2997 RMK AO2A SLP146 WND DATA ESTMD T01450031 10208 20158 51015


Station Type Date Time Source
KQWM Decoded METAR 2024/02/26 17:55 UTC NOAA

Station name not available
Feb 26, 2024 - 12:55 PM EST / 2024.02.26 1755 UTC
Wind: from the WNW (290 degrees) at 5 MPH (4 KT):0
Visibility: greater than 7 mile(s):0
Sky conditions: clear
Temperature: 58.1 F (14.5 C)
Dew Point: 37.6 F (3.1 C)
Relative Humidity: 46%
Pressure (altimeter): 29.97 in. Hg (1014 hPa)
Pressure tendency: 0.04 inches (1.5 hPa) higher than three hours ago
ob: KQWM 261755Z 29004KT 9999 CLR 15/03 A2997 RMK AO2A SLP146 WND DATA ESTMD T01450031 10208 20158 51015
cycle: 18

Station Type Date Time Source
KQWM TAF 2016/03/17 15:00 UTC NOAA